Hlavní strana
METAR-TAF:

METAR-TAF

Letiště :

Eleusis, Řecko

zeměpisná šířka: 38-04N, zeměpisná délka: 023-33E, výška: 44 m

Aktuální stav počasí

Zpráva byla vytvořena před 12 minutami, v 05:20 UTC
Bezvětří
Teplota 2°C
Vlhkost vzduchu 93%
Tlak 1027 hPa
Viditelnost 10 km a více
Žádná oblačnost pod 1500 m, nevyskytují se cumulonimby.

METAR: LGEL 250520Z 00000KT CAVOK 02/01 Q1027

Čas: 07:32 (05:32 UTC)

Předpověď počasí

Zpráva byla vytvořena před 32 minutami, v 05:00 UTC
Předpověď platná od 25 v 06 UTC do 26 v 06 UTC
vítr z různých směrů 5 kt
Viditelnost 10 km a více
Skoro jasno ve výšce 2500 ft
Změna
od 25 v 06 UTC do 25 v 08 UTC
Jižní vítr 10 kt

TAF: LGEL 250500Z 2506/2606 VRB05KT 9999 FEW025 BECMG 2506/2508 18010KT

Stav a předpovědi počasí z více než 4 000 letišť (zprávy METAR a TAF).

Červené a žluté tečky na mapě představují dostupné meteorologické stanice.

Když kurzor umístíte na tečku, zobrazí se název stanice.

Pak kliknutím zobrazíte stav a předpověď počasí.

Chcete-li změnit mapu, kliknutím na zelené tlačítko se znaménkem +mapu přiblížíte, kliknutím na zelené tlačítko se znaménkem – mapu oddálíte a kliknutím na zelené šipky přejdete na sousední mapy.


METAR-TAF: